Time;durP1;ratioP1;P1;durP2;ratioP2;P2;SDS_P1;SDS_P2;PMS_P1;PMS_P2;Temp;Humidity;BMP_temperature;BMP_pressure;BME280_temperature;BME280_humidity;BME280_pressure;Samples;Min_cycle;Max_cycle;Signal;HPM_P1;HPM_P2
2021/07/08 00:00:19;;;;;;;17.75;7.65;;;;;;;16.69;67.79;100865.13;5098165;28;20036;-75
2021/07/08 00:02:45;;;;;;;24.17;8.35;;;;;;;16.73;67.68;100872.06;5103523;28;20043;-75
2021/07/08 00:05:14;;;;;;;17.80;8.00;;;;;;;16.71;67.28;100869.47;5101698;28;20075;-75
2021/07/08 00:07:40;;;;;;;22.88;7.95;;;;;;;16.78;67.22;100886.00;5067282;28;20056;-77
2021/07/08 00:10:12;;;;;;;16.60;8.27;;;;;;;16.77;67.35;100878.16;5088723;28;20491;-76
2021/07/08 00:12:38;;;;;;;21.70;7.88;;;;;;;16.67;67.40;100866.91;5080746;28;20048;-75
2021/07/08 00:15:18;;;;;;;20.50;7.85;;;;;;;16.71;67.30;100871.22;5097974;28;20044;-76
2021/07/08 00:17:46;;;;;;;18.65;8.63;;;;;;;16.65;67.20;100873.97;5093343;28;20085;-77
2021/07/08 00:20:16;;;;;;;22.23;7.82;;;;;;;16.60;67.28;100876.66;5101919;28;20127;-76
2021/07/08 00:22:41;;;;;;;36.28;8.70;;;;;;;16.67;67.43;100888.81;5091680;28;20047;-76
2021/07/08 00:25:12;;;;;;;22.40;7.82;;;;;;;16.61;67.28;100886.28;5074826;28;20040;-77
2021/07/08 00:27:38;;;;;;;20.85;8.18;;;;;;;16.68;67.14;100895.81;5099999;28;20052;-75
2021/07/08 00:30:06;;;;;;;15.40;6.90;;;;;;;16.60;67.34;100870.56;5110108;28;20047;-75
2021/07/08 00:32:32;;;;;;;16.25;7.50;;;;;;;16.75;67.23;100900.97;5113050;28;20048;-76
2021/07/08 00:34:58;;;;;;;13.68;7.57;;;;;;;16.78;67.51;100907.03;5109033;28;20495;-76
2021/07/08 00:37:25;;;;;;;23.17;8.02;;;;;;;16.73;67.35;100889.59;5108521;28;20050;-77
2021/07/08 00:39:51;;;;;;;21.88;7.93;;;;;;;16.78;67.34;100907.03;5093572;28;20071;-77
2021/07/08 00:42:17;;;;;;;23.90;8.10;;;;;;;16.76;67.22;100897.44;5092599;28;20422;-77
2021/07/08 00:44:43;;;;;;;23.55;7.90;;;;;;;16.73;67.42;100893.09;5075704;28;20032;-77
2021/07/08 00:47:10;;;;;;;23.55;8.05;;;;;;;16.63;67.55;100896.78;5093399;28;20117;-76
2021/07/08 00:49:36;;;;;;;19.80;7.85;;;;;;;16.62;67.52;100897.66;5092255;28;20036;-75
2021/07/08 00:52:02;;;;;;;21.88;8.52;;;;;;;16.59;67.65;100909.06;5093971;28;20097;-76
2021/07/08 00:54:56;;;;;;;20.88;7.97;;;;;;;16.62;67.66;100908.19;5093764;28;20079;-76
2021/07/08 00:57:23;;;;;;;12.75;7.82;;;;;;;16.59;67.33;100914.34;5083888;28;20050;-76
2021/07/08 00:59:52;;;;;;;20.38;8.48;;;;;;;16.55;67.39;100916.16;5094605;28;20101;-77
2021/07/08 01:02:20;;;;;;;19.75;7.82;;;;;;;16.46;67.46;100915.44;5093123;28;20039;-75
2021/07/08 01:04:47;;;;;;;26.20;8.60;;;;;;;16.50;67.35;100923.22;5095805;28;20105;-77
2021/07/08 01:07:18;;;;;;;21.85;7.88;;;;;;;16.49;67.39;100921.50;5095708;28;20040;-76
2021/07/08 01:09:44;;;;;;;24.15;9.07;;;;;;;16.49;67.15;100924.13;5088217;28;20428;-76
2021/07/08 01:12:10;;;;;;;20.65;8.25;;;;;;;16.38;67.38;100918.19;5075144;28;20044;-75
2021/07/08 01:14:37;;;;;;;22.45;8.88;;;;;;;16.44;67.52;100918.06;5074896;28;20174;-76
2021/07/08 01:17:07;;;;;;;18.77;8.40;;;;;;;16.42;67.68;100922.50;5080465;28;20118;-76
2021/07/08 01:19:35;;;;;;;26.95;9.75;;;;;;;16.35;67.78;100919.06;5074676;28;20036;-77
2021/07/08 01:22:03;;;;;;;16.75;7.72;;;;;;;16.35;67.76;100932.22;5075208;28;20185;-78
2021/07/08 01:24:29;;;;;;;17.67;9.13;;;;;;;16.36;67.97;100935.72;5075467;28;20037;-77
2021/07/08 01:26:56;;;;;;;27.50;8.80;;;;;;;16.32;67.77;100927.03;5074952;28;20062;-79
2021/07/08 01:29:23;;;;;;;25.98;9.50;;;;;;;16.26;67.79;100930.59;5090571;28;20035;-78
2021/07/08 01:31:49;;;;;;;21.45;9.07;;;;;;;16.33;67.97;100943.63;5097138;28;20063;-76
2021/07/08 01:34:15;;;;;;;21.13;8.73;;;;;;;16.36;67.83;100944.44;5095905;28;20092;-76
2021/07/08 01:36:41;;;;;;;26.13;8.98;;;;;;;16.29;67.94;100937.56;5077981;28;20040;-76
2021/07/08 01:39:07;;;;;;;23.88;9.02;;;;;;;16.42;68.37;100943.53;5075399;28;20044;-75
2021/07/08 01:41:32;;;;;;;25.65;8.82;;;;;;;16.44;68.12;100941.72;5074959;28;20043;-77
2021/07/08 01:44:00;;;;;;;28.70;9.52;;;;;;;16.47;68.17;100938.19;5075949;28;20051;-77
2021/07/08 01:46:26;;;;;;;40.15;11.45;;;;;;;16.56;68.09;100946.78;5057950;28;20050;-75
2021/07/08 01:48:52;;;;;;;27.60;9.18;;;;;;;16.62;68.05;100945.81;5076008;28;20072;-76
2021/07/08 01:51:25;;;;;;;35.53;9.95;;;;;;;16.66;68.21;100944.03;5075140;28;20044;-76
2021/07/08 01:53:51;;;;;;;36.42;9.45;;;;;;;16.59;68.63;100921.38;5075440;28;20093;-76
2021/07/08 01:56:18;;;;;;;30.42;10.32;;;;;;;16.66;68.43;100918.59;5075290;28;20101;-77
2021/07/08 01:58:44;;;;;;;30.55;11.35;;;;;;;16.79;68.58;100935.03;5073999;28;20507;-76
2021/07/08 02:01:10;;;;;;;34.05;11.38;;;;;;;16.90;68.27;100931.34;5075309;28;20036;-76
2021/07/08 02:03:36;;;;;;;31.02;10.60;;;;;;;16.98;68.26;100933.00;5085427;28;20063;-76
2021/07/08 02:06:03;;;;;;;35.35;10.63;;;;;;;17.09;68.32;100938.06;5081635;28;20089;-76
2021/07/08 02:08:29;;;;;;;27.67;10.32;;;;;;;17.13;68.13;100929.22;5083712;28;20428;-76
2021/07/08 02:10:55;;;;;;;32.95;9.30;;;;;;;17.24;67.73;100936.06;5084078;28;20040;-77
2021/07/08 02:13:21;;;;;;;27.38;10.35;;;;;;;17.29;67.98;100927.16;5057199;28;20051;-78
2021/07/08 02:15:47;;;;;;;39.60;9.85;;;;;;;17.31;67.77;100917.50;5074036;28;20037;-77
2021/07/08 02:18:13;;;;;;;35.80;10.13;;;;;;;17.38;67.78;100928.75;5090617;28;20097;-76
2021/07/08 02:20:39;;;;;;;23.38;9.05;;;;;;;17.35;67.64;100928.81;5095642;28;20196;-77
2021/07/08 02:23:05;;;;;;;30.20;10.65;;;;;;;17.41;67.51;100939.22;5095536;28;20072;-77
2021/07/08 02:25:31;;;;;;;29.30;10.20;;;;;;;17.40;67.71;100929.59;5094134;28;20035;-78
2021/07/08 02:27:58;;;;;;;31.25;10.02;;;;;;;17.41;67.41;100928.69;5094056;28;20059;-75
2021/07/08 02:30:26;;;;;;;35.00;10.68;;;;;;;17.48;67.61;100933.84;5094664;28;20040;-76
2021/07/08 02:32:54;;;;;;;28.35;9.93;;;;;;;17.50;67.80;100934.69;5060816;28;20499;-77
2021/07/08 02:35:25;;;;;;;23.05;9.60;;;;;;;17.50;67.77;100937.31;5095274;28;20047;-75
2021/07/08 02:37:52;;;;;;;25.58;9.95;;;;;;;17.43;67.72;100931.31;5094292;28;20035;-78
2021/07/08 02:40:22;;;;;;;27.67;11.50;;;;;;;17.55;67.79;100952.13;5077588;28;20043;-76
2021/07/08 02:42:51;;;;;;;33.65;11.48;;;;;;;17.44;67.76;100925.13;5096013;28;20611;-78
2021/07/08 02:45:24;;;;;;;22.67;10.05;;;;;;;17.52;67.87;100931.13;5095248;28;20372;-76
2021/07/08 02:47:52;;;;;;;25.83;10.75;;;;;;;17.61;68.28;100941.47;5095073;28;20047;-77
2021/07/08 02:50:19;;;;;;;25.02;9.20;;;;;;;17.66;68.38;100940.50;5076911;28;20061;-79
2021/07/08 02:52:46;;;;;;;27.23;10.00;;;;;;;17.71;68.18;100936.91;5076434;28;20043;-77
2021/07/08 02:55:12;;;;;;;36.15;12.05;;;;;;;17.83;68.24;100934.88;5094697;28;20035;-78
2021/07/08 02:57:39;;;;;;;29.83;11.13;;;;;;;17.97;68.16;100939.88;5094361;28;20043;-79
2021/07/08 03:00:08;;;;;;;26.85;9.95;;;;;;;18.01;68.00;100936.31;5093065;28;20052;-75
2021/07/08 03:02:34;;;;;;;27.45;10.48;;;;;;;18.16;67.68;100941.22;5093435;28;20055;-75
2021/07/08 03:05:00;;;;;;;30.83;11.02;;;;;;;18.27;67.71;100938.34;5094449;28;20085;-76
2021/07/08 03:07:26;;;;;;;28.10;11.38;;;;;;;18.41;67.38;100940.66;5078464;28;20039;-76
2021/07/08 03:09:52;;;;;;;35.22;11.82;;;;;;;18.58;67.02;100942.91;5076297;28;20041;-76
2021/07/08 03:12:18;;;;;;;27.83;9.95;;;;;;;18.78;66.86;100942.41;5079769;28;20049;-78
2021/07/08 03:14:44;;;;;;;31.23;10.77;;;;;;;18.98;66.35;100945.47;5073770;28;20090;-79
2021/07/08 03:17:10;;;;;;;33.63;11.15;;;;;;;19.05;66.18;100924.19;5060397;28;20051;-76
2021/07/08 03:19:36;;;;;;;36.45;10.20;;;;;;;19.23;65.85;100928.09;5093585;28;20075;-77
2021/07/08 03:22:02;;;;;;;26.70;10.63;;;;;;;19.39;65.48;100922.41;5093686;28;20499;-78
2021/07/08 03:24:28;;;;;;;25.45;10.80;;;;;;;19.71;65.08;100947.03;5092985;28;20131;-75
2021/07/08 03:26:54;;;;;;;30.90;11.63;;;;;;;19.63;64.70;100910.28;5076887;28;20570;-77
2021/07/08 03:29:20;;;;;;;27.23;11.60;;;;;;;19.91;64.24;100927.97;5097452;28;20036;-77
2021/07/08 03:31:47;;;;;;;30.88;10.20;;;;;;;20.06;63.92;100928.44;5099118;28;20101;-76
2021/07/08 03:34:13;;;;;;;35.53;10.95;;;;;;;20.31;63.43;100939.09;5098349;28;20089;-77
2021/07/08 03:36:39;;;;;;;24.27;10.75;;;;;;;20.51;63.47;100942.88;5076256;28;20056;-75
2021/07/08 03:39:05;;;;;;;33.60;12.43;;;;;;;20.65;63.00;100948.56;5075647;28;20040;-75
2021/07/08 03:41:32;;;;;;;26.23;12.25;;;;;;;20.68;62.65;100927.31;5093285;28;20039;-78
2021/07/08 03:43:59;;;;;;;26.38;12.27;;;;;;;20.82;62.51;100926.91;5092232;28;20043;-80
2021/07/08 03:46:25;;;;;;;38.85;12.82;;;;;;;21.11;62.66;100937.38;5092056;28;20044;-76
2021/07/08 03:48:51;;;;;;;29.00;11.52;;;;;;;21.24;62.16;100924.59;5092508;28;20127;-75
2021/07/08 03:51:17;;;;;;;34.65;12.57;;;;;;;21.47;62.31;100937.00;5074952;28;20135;-79
2021/07/08 03:53:43;;;;;;;29.58;12.60;;;;;;;21.72;62.47;100933.50;5092518;28;20154;-77
2021/07/08 03:56:09;;;;;;;34.13;13.13;;;;;;;21.89;61.69;100924.88;5093305;28;20036;-78
2021/07/08 03:58:36;;;;;;;32.20;12.90;;;;;;;22.17;61.52;100932.66;5093306;28;20096;-78
2021/07/08 04:01:02;;;;;;;25.98;12.35;;;;;;;22.36;61.29;100931.91;5093675;28;20062;-76
2021/07/08 04:03:28;;;;;;;25.92;12.52;;;;;;;22.53;61.44;100932.09;5095222;28;20130;-75
2021/07/08 04:05:54;;;;;;;27.83;12.40;;;;;;;22.64;60.93;100926.34;5093646;28;20036;-78
2021/07/08 04:08:20;;;;;;;34.13;13.98;;;;;;;22.75;60.84;100923.25;5093255;28;20422;-77
2021/07/08 04:10:46;;;;;;;28.95;13.70;;;;;;;22.96;60.32;100931.22;5093089;28;20097;-77
2021/07/08 04:13:16;;;;;;;31.02;12.93;;;;;;;22.95;60.06;100908.28;5093494;28;20086;-76
2021/07/08 04:15:43;;;;;;;35.40;14.63;;;;;;;23.28;59.76;100931.66;5105249;28;20040;-77
2021/07/08 04:18:11;;;;;;;32.38;13.10;;;;;;;23.55;59.35;100923.34;5071612;28;20048;-78
2021/07/08 04:20:37;;;;;;;30.23;14.23;;;;;;;23.72;58.71;100926.09;5055275;28;20032;-77
2021/07/08 04:23:05;;;;;;;26.90;13.20;;;;;;;23.95;57.76;100921.50;5072120;28;20575;-76
2021/07/08 04:25:32;;;;;;;30.25;13.00;;;;;;;24.20;57.33;100931.88;5055205;28;20085;-77
2021/07/08 04:28:01;;;;;;;26.80;12.32;;;;;;;24.32;56.85;100913.59;5072115;28;20488;-79
2021/07/08 04:30:28;;;;;;;32.95;11.88;;;;;;;24.55;56.39;100908.94;5054965;28;20051;-80
2021/07/08 04:32:55;;;;;;;29.35;12.25;;;;;;;24.85;56.24;100927.81;5072621;28;20044;-78
2021/07/08 04:35:30;;;;;;;25.67;10.93;;;;;;;24.89;55.47;100901.94;5055002;28;20583;-79
2021/07/08 04:37:57;;;;;;;25.55;10.25;;;;;;;25.27;54.62;100925.69;5071479;28;20040;-78
2021/07/08 04:40:24;;;;;;;24.80;10.48;;;;;;;25.46;53.91;100925.59;5072589;28;20054;-79
2021/07/08 04:42:50;;;;;;;24.88;10.00;;;;;;;25.52;53.36;100903.94;5072446;28;20055;-78
2021/07/08 04:45:17;;;;;;;20.73;9.32;;;;;;;25.92;52.61;100926.69;5071806;28;20035;-78
2021/07/08 04:47:44;;;;;;;19.38;8.07;;;;;;;26.11;51.75;100914.06;5073299;28;20064;-78
2021/07/08 04:50:18;;;;;;;22.35;8.23;;;;;;;26.35;50.59;100910.97;5072379;28;20127;-76
2021/07/08 04:52:48;;;;;;;14.13;5.78;;;;;;;26.54;49.39;100910.72;5071168;28;20044;-79
2021/07/08 04:55:18;;;;;;;16.98;5.75;;;;;;;26.72;47.59;100911.47;5037792;28;20033;-76
2021/07/08 04:57:45;;;;;;;10.90;4.95;;;;;;;26.91;46.05;100919.25;5071767;28;20097;-78
2021/07/08 05:00:13;;;;;;;11.60;5.85;;;;;;;27.02;45.18;100915.94;5038000;28;20392;-78
2021/07/08 05:02:45;;;;;;;12.13;5.88;;;;;;;27.12;44.72;100910.03;5072792;28;20036;-76
2021/07/08 05:05:18;;;;;;;11.63;5.25;;;;;;;27.21;44.00;100909.47;5071854;28;20040;-75
2021/07/08 05:07:44;;;;;;;8.40;4.97;;;;;;;27.41;43.85;100910.91;5073377;28;20067;-76
2021/07/08 05:10:18;;;;;;;10.45;5.68;;;;;;;27.60;42.93;100915.97;5084177;28;20044;-78
2021/07/08 05:12:44;;;;;;;11.90;5.75;;;;;;;27.78;42.83;100918.44;5090856;28;20032;-79
2021/07/08 05:15:14;;;;;;;13.45;5.43;;;;;;;27.99;42.44;100918.00;5074200;28;20048;-76
2021/07/08 05:17:40;;;;;;;9.55;5.50;;;;;;;28.21;42.06;100922.88;5090792;28;20040;-79
2021/07/08 05:20:07;;;;;;;11.43;5.28;;;;;;;28.37;41.74;100923.56;5091324;28;20497;-77
2021/07/08 05:22:34;;;;;;;9.48;4.40;;;;;;;28.54;40.91;100910.84;5099076;28;20051;-76
2021/07/08 05:25:01;;;;;;;11.05;4.40;;;;;;;28.70;40.45;100924.91;5080118;28;20044;-77
2021/07/08 05:27:30;;;;;;;9.18;4.80;;;;;;;28.76;39.99;100920.13;5091229;28;20172;-76
2021/07/08 05:29:56;;;;;;;9.13;4.57;;;;;;;28.75;39.47;100907.72;5092754;28;20080;-78
2021/07/08 05:32:23;;;;;;;12.73;4.70;;;;;;;28.95;38.73;100903.69;5092338;28;20089;-77
2021/07/08 05:34:49;;;;;;;9.55;4.97;;;;;;;29.18;38.51;100910.09;5092034;28;20032;-76
2021/07/08 05:37:14;;;;;;;9.75;4.35;;;;;;;29.41;37.45;100921.91;5092453;28;20143;-77
2021/07/08 05:39:41;;;;;;;10.02;4.15;;;;;;;29.51;37.20;100910.53;5093072;28;20039;-78
2021/07/08 05:42:08;;;;;;;5.65;3.92;;;;;;;29.66;36.30;100920.16;5091210;28;20036;-78
2021/07/08 05:44:34;;;;;;;5.35;3.70;;;;;;;29.66;36.03;100904.06;5058865;28;20040;-78
2021/07/08 05:47:00;;;;;;;6.32;3.55;;;;;;;29.77;35.76;100908.66;5091797;28;20040;-78
2021/07/08 05:49:27;;;;;;;7.72;3.70;;;;;;;30.05;35.28;100926.28;5095287;28;20047;-79
2021/07/08 05:51:56;;;;;;;8.15;3.85;;;;;;;30.41;34.95;100914.75;5097282;28;20123;-78
2021/07/08 05:54:22;;;;;;;6.50;3.45;;;;;;;31.18;34.16;100908.03;5097561;28;20488;-77
2021/07/08 05:56:48;;;;;;;6.82;4.00;;;;;;;32.53;32.84;100900.69;5103383;28;20092;-78
2021/07/08 05:59:15;;;;;;;6.75;3.30;;;;;;;34.48;30.10;100895.31;5097958;28;20039;-76
2021/07/08 06:01:41;;;;;;;5.60;3.00;;;;;;;36.19;28.03;100855.44;5098029;28;20039;-78
2021/07/08 06:04:07;;;;;;;5.40;2.83;;;;;;;38.25;25.98;100890.00;5090225;28;20503;-77
2021/07/08 06:06:33;;;;;;;7.88;3.38;;;;;;;39.82;23.12;100892.34;5105807;28;20062;-77
2021/07/08 06:08:59;;;;;;;6.72;3.03;;;;;;;41.21;21.51;100890.38;5078798;28;20151;-78
2021/07/08 06:11:25;;;;;;;3.45;3.03;;;;;;;42.42;20.73;100897.19;5089479;28;20044;-76
2021/07/08 06:13:50;;;;;;;6.43;3.00;;;;;;;43.40;19.58;100892.75;5113074;28;20054;-76
2021/07/08 06:16:17;;;;;;;4.57;3.20;;;;;;;44.29;18.28;100893.56;5110887;28;20046;-75
2021/07/08 06:18:43;;;;;;;4.15;3.05;;;;;;;45.08;17.17;100893.66;5110220;28;20419;-76
2021/07/08 06:21:13;;;;;;;5.35;2.97;;;;;;;45.80;16.31;100891.88;5111889;28;20164;-76
2021/07/08 06:23:39;;;;;;;3.30;2.90;;;;;;;46.51;15.38;100889.84;5112897;28;20040;-74
2021/07/08 06:26:05;;;;;;;8.65;2.80;;;;;;;47.11;14.60;100896.59;5111920;28;20047;-78
2021/07/08 06:28:33;;;;;;;4.35;2.42;;;;;;;47.53;14.21;100884.84;5111612;28;20040;-75
2021/07/08 06:30:59;;;;;;;4.47;2.60;;;;;;;48.24;13.30;100890.53;5113668;28;20043;-75
2021/07/08 06:33:25;;;;;;;3.35;2.70;;;;;;;48.83;13.17;100883.31;5112396;28;20040;-78
2021/07/08 06:35:51;;;;;;;5.40;2.75;;;;;;;49.29;12.35;100878.75;5101432;28;20467;-79
2021/07/08 06:38:18;;;;;;;3.25;2.97;;;;;;;49.84;12.07;100901.38;5098482;28;20060;-78
2021/07/08 06:40:44;;;;;;;4.90;3.05;;;;;;;50.17;10.98;100887.81;5095591;28;20051;-80
2021/07/08 06:43:09;;;;;;;5.78;2.80;;;;;;;50.27;10.90;100887.94;5079957;28;20055;-78
2021/07/08 06:45:36;;;;;;;3.30;3.00;;;;;;;50.65;10.64;100890.16;5095956;28;20119;-78
2021/07/08 06:48:06;;;;;;;4.57;3.15;;;;;;;51.13;10.04;100890.50;5097994;28;20035;-81
2021/07/08 06:50:35;;;;;;;4.00;2.90;;;;;;;51.48;9.75;100897.53;5098273;28;20040;-79
2021/07/08 06:53:02;;;;;;;5.32;3.20;;;;;;;51.66;9.40;100890.81;5097288;28;20048;-77
2021/07/08 06:55:29;;;;;;;6.22;2.97;;;;;;;52.06;8.79;100885.88;5096591;28;20050;-79
2021/07/08 06:57:55;;;;;;;4.45;2.78;;;;;;;52.40;8.89;100883.63;5096311;28;20134;-77
2021/07/08 07:00:29;;;;;;;7.60;3.90;;;;;;;52.55;9.02;100891.16;5077841;28;20067;-79
2021/07/08 07:02:57;;;;;;;4.15;3.72;;;;;;;52.34;8.89;100893.03;5096294;28;20040;-78
2021/07/08 07:05:24;;;;;;;5.80;3.70;;;;;;;52.45;8.50;100896.69;5095067;28;20036;-79
2021/07/08 07:07:52;;;;;;;6.30;3.38;;;;;;;52.04;8.84;100899.19;5094106;28;20063;-79
2021/07/08 07:10:20;;;;;;;4.10;3.33;;;;;;;52.14;8.53;100890.91;5077420;28;20064;-78
2021/07/08 07:12:47;;;;;;;5.90;3.72;;;;;;;52.56;7.80;100889.25;5093266;28;20042;-78
2021/07/08 07:15:17;;;;;;;5.28;3.28;;;;;;;52.37;7.69;100900.81;5076578;28;20081;-82
2021/07/08 07:17:47;;;;;;;6.63;3.92;;;;;;;51.71;8.20;100877.00;5077212;28;20036;-78
2021/07/08 07:20:15;;;;;;;6.28;3.85;;;;;;;51.52;8.82;100885.66;5095971;28;20055;-79
2021/07/08 07:22:45;;;;;;;8.23;3.70;;;;;;;50.90;8.85;100878.59;5094926;28;20427;-80
2021/07/08 07:25:12;;;;;;;6.50;3.80;;;;;;;51.29;8.70;100869.38;5094110;28;20051;-80
2021/07/08 07:27:39;;;;;;;12.55;4.15;;;;;;;51.87;8.43;100893.75;5078985;28;20046;-79
2021/07/08 07:30:06;;;;;;;6.20;4.20;;;;;;;52.29;8.31;100881.88;5102054;28;20122;-77
2021/07/08 07:32:35;;;;;;;5.97;3.45;;;;;;;53.08;7.78;100872.84;5102088;28;20036;-78
2021/07/08 07:35:03;;;;;;;5.18;3.95;;;;;;;53.81;7.11;100885.72;5080767;28;20040;-77
2021/07/08 07:37:30;;;;;;;6.32;3.55;;;;;;;53.44;7.12;100895.97;5098910;28;20074;-80
2021/07/08 07:39:56;;;;;;;5.10;3.75;;;;;;;53.78;7.35;100893.78;5060633;28;20044;-79
2021/07/08 07:42:22;;;;;;;4.80;3.60;;;;;;;53.93;6.88;100884.59;5076418;28;20081;-79
2021/07/08 07:44:50;;;;;;;7.05;3.92;;;;;;;54.17;6.79;100879.28;5094594;28;20035;-80
2021/07/08 07:47:16;;;;;;;5.93;4.32;;;;;;;53.88;6.63;100889.06;5095045;28;20051;-78
2021/07/08 07:49:43;;;;;;;4.90;3.60;;;;;;;53.94;6.84;100895.47;5094101;28;20718;-80
2021/07/08 07:52:12;;;;;;;4.93;3.70;;;;;;;54.49;6.30;100887.28;5093067;28;20048;-79
2021/07/08 07:54:39;;;;;;;5.07;3.90;;;;;;;54.55;6.73;100887.28;5094817;28;20039;-77
2021/07/08 07:57:06;;;;;;;4.00;3.70;;;;;;;54.94;6.02;100879.09;5094950;28;20134;-79
2021/07/08 07:59:32;;;;;;;6.28;4.05;;;;;;;55.06;6.14;100875.09;5093296;28;20047;-78
2021/07/08 08:01:58;;;;;;;6.00;4.15;;;;;;;54.24;6.57;100895.69;5077816;28;20046;-80
2021/07/08 08:04:29;;;;;;;8.57;4.18;;;;;;;54.88;6.05;100865.41;5077851;28;20093;-78
2021/07/08 08:09:41;;;;;;;4.65;3.90;;;;;;;54.46;6.50;100884.25;5091111;28;20488;-80
2021/07/08 08:12:08;;;;;;;5.90;4.15;;;;;;;53.83;6.88;100880.72;5076061;28;20040;-78
2021/07/08 08:14:34;;;;;;;7.47;3.75;;;;;;;54.16;6.52;100884.03;5094077;28;20040;-78
2021/07/08 08:17:00;;;;;;;5.97;3.97;;;;;;;54.50;6.21;100871.44;5076438;28;20125;-82
2021/07/08 08:19:27;;;;;;;6.25;3.40;;;;;;;54.58;6.20;100875.56;5095111;28;20119;-78
2021/07/08 08:21:52;;;;;;;9.48;3.83;;;;;;;55.16;5.97;100868.63;5075774;28;20138;-77
2021/07/08 08:24:18;;;;;;;7.53;3.42;;;;;;;55.87;5.73;100873.94;5075260;28;20036;-77
2021/07/08 08:26:50;;;;;;;4.95;4.13;;;;;;;56.41;5.90;100871.97;5092567;28;20539;-78
2021/07/08 08:29:16;;;;;;;4.63;4.10;;;;;;;56.76;5.69;100863.47;5091880;28;20503;-82
2021/07/08 08:31:43;;;;;;;6.85;4.28;;;;;;;56.74;4.81;100858.19;5058587;28;20071;-79
2021/07/08 08:34:09;;;;;;;6.75;4.40;;;;;;;55.25;5.65;100872.47;5093086;28;20047;-80
2021/07/08 08:36:35;;;;;;;15.65;4.78;;;;;;;54.23;6.31;100857.84;5075459;28;20039;-79
2021/07/08 08:39:01;;;;;;;5.78;4.13;;;;;;;53.69;6.30;100858.19;5074804;28;20036;-78
2021/07/08 08:41:26;;;;;;;6.07;4.28;;;;;;;53.48;6.86;100862.91;5076869;28;20032;-80
2021/07/08 08:43:52;;;;;;;6.03;4.18;;;;;;;53.82;6.13;100865.13;5098230;28;20039;-78
2021/07/08 08:46:18;;;;;;;4.82;4.03;;;;;;;53.58;6.55;100856.50;5091887;28;20438;-80
2021/07/08 08:48:44;;;;;;;3.72;3.42;;;;;;;53.67;6.83;100860.41;5059016;28;20046;-78
2021/07/08 08:51:11;;;;;;;6.57;3.90;;;;;;;53.70;6.63;100850.69;5092082;28;20040;-79
2021/07/08 08:53:37;;;;;;;4.13;3.72;;;;;;;54.04;6.64;100864.03;5093735;28;20448;-77
2021/07/08 08:56:03;;;;;;;7.75;3.75;;;;;;;54.13;6.16;100854.00;5075614;28;20040;-81
2021/07/08 08:58:29;;;;;;;7.95;4.10;;;;;;;54.68;6.20;100839.34;5092632;28;20478;-80
2021/07/08 09:00:57;;;;;;;7.35;4.10;;;;;;;54.38;6.40;100846.72;5093348;28;20032;-79
2021/07/08 09:03:28;;;;;;;8.82;4.07;;;;;;;54.36;6.37;100843.38;5092281;28;20104;-81
2021/07/08 09:06:07;;;;;;;4.63;4.20;;;;;;;54.77;5.98;100837.63;5075670;28;20429;-79
2021/07/08 09:08:36;;;;;;;7.00;4.50;;;;;;;54.72;5.85;100848.81;5094069;28;20144;-82
2021/07/08 09:11:05;;;;;;;4.72;4.10;;;;;;;54.11;6.07;100859.00;5073037;28;20037;-80
2021/07/08 09:13:43;;;;;;;5.30;4.45;;;;;;;53.97;6.33;100847.63;5073089;28;20114;-81
2021/07/08 09:16:29;;;;;;;4.18;3.78;;;;;;;54.35;5.80;100847.28;5089613;28;20045;-77
2021/07/08 09:19:06;;;;;;;6.13;4.10;;;;;;;54.49;6.08;100847.50;5054783;28;20047;-78
2021/07/08 09:22:01;;;;;;;6.68;4.50;;;;;;;54.84;5.89;100848.47;5037906;28;20078;-78
2021/07/08 09:24:31;;;;;;;6.97;4.68;;;;;;;55.34;5.50;100844.84;5076248;28;20100;-79
2021/07/08 09:27:10;;;;;;;6.57;4.47;;;;;;;54.78;5.44;100833.72;5076953;28;20044;-78
2021/07/08 09:29:39;;;;;;;5.53;4.50;;;;;;;53.08;6.01;100831.16;5076971;28;20047;-78
2021/07/08 09:32:12;;;;;;;6.57;4.40;;;;;;;52.17;6.52;100831.31;5078731;28;20132;-78
2021/07/08 09:34:39;;;;;;;4.90;4.25;;;;;;;52.35;6.61;100833.63;5076922;28;20131;-82
2021/07/08 09:37:13;;;;;;;8.07;3.70;;;;;;;52.86;6.61;100834.94;5075674;28;20036;-80
2021/07/08 09:39:46;;;;;;;7.07;3.90;;;;;;;53.32;6.81;100834.28;5093189;28;20044;-78
2021/07/08 09:42:15;;;;;;;5.70;4.20;;;;;;;53.27;6.58;100821.22;5076274;28;20040;-78
2021/07/08 09:44:42;;;;;;;6.72;3.65;;;;;;;53.68;6.03;100819.56;5077878;28;20041;-79
2021/07/08 09:47:21;;;;;;;5.00;4.50;;;;;;;54.00;6.39;100822.03;5076639;28;20500;-80
2021/07/08 09:49:47;;;;;;;5.82;4.15;;;;;;;53.79;5.98;100832.31;5083245;28;20049;-80
2021/07/08 09:52:14;;;;;;;4.40;4.00;;;;;;;53.43;6.71;100812.88;5076555;28;20135;-81
2021/07/08 09:55:12;;;;;;;10.15;4.35;;;;;;;53.07;6.94;100821.16;5076441;28;20083;-79
2021/07/08 09:57:47;;;;;;;7.05;3.75;;;;;;;52.68;6.70;100812.13;5085566;28;20142;-81
2021/07/08 10:00:18;;;;;;;8.38;4.15;;;;;;;52.47;6.51;100814.00;5076486;28;20052;-78
2021/07/08 10:02:49;;;;;;;10.82;4.07;;;;;;;52.03;6.88;100809.56;5076519;28;20040;-80
2021/07/08 10:05:16;;;;;;;5.75;4.05;;;;;;;52.40;7.09;100803.16;5080937;28;20487;-76
2021/07/08 10:07:43;;;;;;;7.45;3.88;;;;;;;51.32;7.13;100803.19;5093790;28;20089;-77
2021/07/08 10:10:10;;;;;;;7.75;3.95;;;;;;;50.50;7.65;100805.84;5105514;28;20036;-77
2021/07/08 10:12:38;;;;;;;7.88;4.00;;;;;;;50.62;7.83;100797.41;5096940;28;20031;-78
2021/07/08 10:15:06;;;;;;;9.07;3.80;;;;;;;51.32;7.78;100808.72;5112382;28;20044;-78
2021/07/08 10:17:35;;;;;;;7.32;3.90;;;;;;;51.55;7.30;100791.97;5080124;28;20084;-77
2021/07/08 10:20:03;;;;;;;4.13;3.70;;;;;;;51.77;7.60;100803.81;5102054;28;20097;-80
2021/07/08 10:22:30;;;;;;;4.72;3.50;;;;;;;51.70;7.47;100796.84;5069152;28;20142;-78
2021/07/08 10:24:56;;;;;;;5.45;3.83;;;;;;;51.01;7.21;100796.47;5100460;28;20566;-78
2021/07/08 10:27:23;;;;;;;4.03;3.33;;;;;;;50.07;8.01;100790.81;5101216;28;20036;-80
2021/07/08 10:29:49;;;;;;;5.80;4.07;;;;;;;49.94;7.98;100795.63;5096545;28;20032;-80
2021/07/08 10:32:17;;;;;;;5.03;4.20;;;;;;;48.42;8.68;100786.72;5095366;28;20036;-82
2021/07/08 10:34:48;;;;;;;9.90;4.80;;;;;;;46.13;10.15;100795.41;5094823;28;20493;-81
2021/07/08 10:37:26;;;;;;;5.18;3.83;;;;;;;44.46;10.83;100792.53;5079321;28;20047;-79
2021/07/08 10:39:54;;;;;;;5.45;4.13;;;;;;;42.91;11.32;100779.69;5080540;28;20134;-80
2021/07/08 10:42:45;;;;;;;6.50;4.00;;;;;;;41.87;12.80;100784.84;5095096;28;20036;-81
2021/07/08 10:45:41;;;;;;;6.18;3.97;;;;;;;41.31;13.05;100776.31;5095994;28;20040;-79
2021/07/08 10:48:19;;;;;;;8.30;4.13;;;;;;;40.68;13.68;100776.81;5094575;28;20047;-78
2021/07/08 10:50:46;;;;;;;12.48;4.80;;;;;;;39.99;14.27;100778.63;5093577;28;20043;-79
2021/07/08 10:53:41;;;;;;;7.10;5.10;;;;;;;39.11;15.31;100778.03;5095434;28;20116;-81
2021/07/08 10:56:13;;;;;;;5.53;3.90;;;;;;;38.57;15.32;100774.13;5098208;28;20123;-78
2021/07/08 10:58:49;;;;;;;8.07;3.90;;;;;;;37.94;15.93;100779.31;5096134;28;20044;-79
2021/07/08 11:01:25;;;;;;;6.97;4.20;;;;;;;37.49;16.11;100784.19;5095861;28;20466;-80
2021/07/08 11:03:52;;;;;;;7.00;3.80;;;;;;;36.95;16.95;100762.81;5096432;28;20116;-79
2021/07/08 11:06:21;;;;;;;9.52;4.20;;;;;;;36.60;17.34;100771.75;5095638;28;20117;-80
2021/07/08 11:08:57;;;;;;;5.78;4.00;;;;;;;36.30;17.75;100786.63;5096230;28;20052;-76
2021/07/08 11:11:23;;;;;;;7.65;3.83;;;;;;;36.07;18.15;100792.53;5075453;28;20703;-77
2021/07/08 11:14:15;;;;;;;5.68;3.80;;;;;;;35.78;18.39;100792.78;5075773;28;20046;-78
2021/07/08 11:16:47;;;;;;;5.65;4.30;;;;;;;35.37;18.79;100785.94;5054497;28;20045;-80
2021/07/08 11:19:19;;;;;;;8.85;4.13;;;;;;;35.08;18.91;100776.13;5094361;28;20529;-79
2021/07/08 11:21:56;;;;;;;7.13;4.30;;;;;;;34.80;19.34;100765.28;5097454;28;20040;-80
2021/07/08 11:24:35;;;;;;;7.43;4.30;;;;;;;34.73;19.37;100772.28;5102605;28;20082;-79
2021/07/08 11:27:06;;;;;;;6.95;3.85;;;;;;;34.52;19.79;100781.47;5101520;28;20055;-76
2021/07/08 11:29:47;;;;;;;9.35;3.97;;;;;;;34.22;20.09;100780.66;5081187;28;20092;-80